Time;durP1;ratioP1;P1;durP2;ratioP2;P2;SDS_P1;SDS_P2;PMS_P1;PMS_P2;Temp;Humidity;BMP_temperature;BMP_pressure;BME280_temperature;BME280_humidity;BME280_pressure;Samples;Min_cycle;Max_cycle;Signal;HPM_P1;HPM_P2
2024/01/29 00:01:43;;;;;;;18.87;16.87;;;4.40;99.90;;;;;;4988160;28;20564;-60
2024/01/29 00:04:08;;;;;;;18.33;16.93;;;4.40;76.70;;;;;;5006348;28;20167;-58
2024/01/29 00:06:34;;;;;;;17.63;16.03;;;4.30;1.00;;;;;;5008926;28;20182;-58
2024/01/29 00:09:00;;;;;;;17.33;15.93;;;4.40;1.00;;;;;;5015446;28;20193;-58
2024/01/29 00:11:25;;;;;;;18.73;16.87;;;4.40;1.00;;;;;;4986810;28;20183;-58
2024/01/29 00:13:51;;;;;;;18.07;16.37;;;4.40;1.00;;;;;;5010902;28;20666;-59
2024/01/29 00:16:17;;;;;;;17.90;16.20;;;4.40;1.00;;;;;;4985751;28;20228;-57
2024/01/29 00:18:42;;;;;;;16.50;15.00;;;4.40;99.90;;;;;;4995199;28;20190;-56
2024/01/29 00:21:08;;;;;;;17.40;15.90;;;4.40;99.90;;;;;;5005196;28;20249;-59
2024/01/29 00:23:34;;;;;;;17.43;15.87;;;4.40;99.90;;;;;;5015267;28;20222;-41
2024/01/29 00:26:00;;;;;;;16.83;15.30;;;4.40;99.90;;;;;;5010204;28;20189;-39
2024/01/29 00:28:25;;;;;;;16.93;15.63;;;4.40;99.90;;;;;;5008502;28;20421;-40
2024/01/29 00:30:51;;;;;;;17.77;16.30;;;4.40;47.10;;;;;;5009302;28;20437;-40
2024/01/29 00:33:17;;;;;;;17.30;15.60;;;4.40;9.70;;;;;;5007023;28;20183;-41
2024/01/29 00:35:43;;;;;;;18.15;16.30;;;4.40;1.00;;;;;;5007757;28;20190;-39
2024/01/29 00:38:09;;;;;;;17.33;15.83;;;4.40;1.00;;;;;;5010174;28;20225;-39
2024/01/29 00:40:34;;;;;;;16.57;15.27;;;4.40;1.00;;;;;;5011123;28;20186;-38
2024/01/29 00:43:01;;;;;;;17.53;15.93;;;4.40;1.00;;;;;;5002119;28;20191;-39
2024/01/29 00:45:27;;;;;;;17.52;15.82;;;4.40;1.00;;;;;;5011662;28;20179;-39
2024/01/29 00:47:52;;;;;;;17.07;15.77;;;4.50;1.00;;;;;;5019780;28;20505;-38
2024/01/29 00:50:18;;;;;;;17.83;16.17;;;4.40;99.90;;;;;;5008325;28;20526;-39
2024/01/29 00:52:43;;;;;;;17.90;16.17;;;4.40;99.90;;;;;;5013526;28;20672;-40
2024/01/29 00:55:09;;;;;;;16.67;15.20;;;4.40;99.90;;;;;;5003952;28;20559;-41
2024/01/29 00:57:35;;;;;;;16.27;14.87;;;4.40;99.90;;;;;;5013118;28;20194;-40
2024/01/29 01:00:01;;;;;;;16.23;14.87;;;4.40;99.90;;;;;;5012183;28;20436;-41
2024/01/29 01:02:26;;;;;;;16.77;15.50;;;4.40;99.90;;;;;;5007389;28;20218;-41
2024/01/29 01:04:52;;;;;;;16.20;14.90;;;4.40;99.90;;;;;;5010415;28;20238;-40
2024/01/29 01:07:17;;;;;;;16.20;14.93;;;4.40;99.90;;;;;;5007241;28;20191;-40
2024/01/29 01:09:43;;;;;;;16.10;14.57;;;4.40;99.90;;;;;;5008484;28;20179;-42
2024/01/29 01:12:08;;;;;;;17.37;15.73;;;4.40;99.90;;;;;;5002894;28;20222;-40
2024/01/29 01:14:34;;;;;;;15.90;14.50;;;4.40;91.60;;;;;;5009088;28;20187;-40
2024/01/29 01:17:00;;;;;;;16.73;15.43;;;4.40;9.60;;;;;;5015228;28;20213;-59
2024/01/29 01:19:25;;;;;;;16.30;14.90;;;4.40;1.00;;;;;;5017869;28;20202;-59
2024/01/29 01:21:51;;;;;;;15.73;14.77;;;4.40;1.00;;;;;;5006657;28;20269;-59
2024/01/29 01:24:16;;;;;;;16.57;15.17;;;4.40;1.00;;;;;;5013328;28;20214;-58
2024/01/29 01:26:42;;;;;;;15.23;14.10;;;4.40;1.00;;;;;;5008965;28;20675;-56
2024/01/29 01:29:07;;;;;;;16.83;15.43;;;4.40;1.00;;;;;;5020201;28;20178;-56
2024/01/29 01:31:33;;;;;;;15.90;14.83;;;4.40;1.00;;;;;;5017450;28;20187;-59
2024/01/29 01:33:59;;;;;;;16.47;15.23;;;4.50;1.00;;;;;;5014136;28;20191;-57
2024/01/29 01:36:24;;;;;;;16.50;15.10;;;4.50;1.00;;;;;;5009857;28;20207;-60
2024/01/29 01:38:51;;;;;;;16.90;15.40;;;4.60;1.00;;;;;;5015631;28;20212;-59
2024/01/29 01:41:16;;;;;;;16.08;14.70;;;4.60;1.00;;;;;;4999576;28;20654;-50
2024/01/29 01:43:42;;;;;;;16.87;15.27;;;4.50;1.00;;;;;;5013799;28;20191;-59
2024/01/29 01:46:21;;;;;;;16.83;15.43;;;4.60;99.90;;;;;;4996588;28;20178;-59
2024/01/29 01:48:48;;;;;;;16.02;14.90;;;4.50;99.90;;;;;;5018619;28;20178;-41
2024/01/29 01:51:14;;;;;;;15.82;14.45;;;4.50;99.90;;;;;;5019891;28;20182;-40
2024/01/29 01:53:41;;;;;;;16.25;15.02;;;4.50;99.90;;;;;;5018296;28;20190;-40
2024/01/29 01:56:08;;;;;;;16.40;15.02;;;4.60;99.90;;;;;;5008905;28;20207;-40
2024/01/29 01:58:34;;;;;;;16.98;15.65;;;4.60;99.90;;;;;;5020428;28;20181;-40
2024/01/29 02:01:00;;;;;;;16.73;15.10;;;4.60;99.90;;;;;;5012262;28;20191;-39
2024/01/29 02:03:26;;;;;;;16.40;15.13;;;4.60;99.90;;;;;;5019215;28;20548;-39
2024/01/29 02:05:52;;;;;;;15.48;14.40;;;4.50;99.90;;;;;;5018038;28;20237;-40
2024/01/29 02:08:18;;;;;;;15.97;14.57;;;4.50;99.90;;;;;;5011330;28;20178;-39
2024/01/29 02:10:45;;;;;;;16.15;14.95;;;4.50;99.90;;;;;;5004942;28;20175;-39
2024/01/29 02:13:11;;;;;;;17.52;16.02;;;4.50;99.90;;;;;;5015194;28;20723;-40
2024/01/29 02:15:37;;;;;;;16.70;15.40;;;4.50;99.90;;;;;;5007515;28;20186;-40
2024/01/29 02:18:03;;;;;;;16.90;15.50;;;4.40;99.90;;;;;;5008785;28;20198;-40
2024/01/29 02:20:29;;;;;;;16.75;15.25;;;4.40;99.90;;;;;;5011657;28;20187;-40
2024/01/29 02:22:55;;;;;;;16.40;15.20;;;4.40;99.90;;;;;;5014788;28;20183;-39
2024/01/29 02:25:20;;;;;;;17.40;15.70;;;4.40;99.90;;;;;;5019950;28;20189;-40
2024/01/29 02:27:46;;;;;;;17.83;16.23;;;4.40;99.90;;;;;;5014975;28;20205;-57
2024/01/29 02:30:13;;;;;;;17.47;15.80;;;4.40;99.90;;;;;;5020225;28;20183;-60
2024/01/29 02:32:39;;;;;;;17.35;15.85;;;4.30;99.90;;;;;;5009065;28;20199;-59
2024/01/29 02:35:05;;;;;;;17.40;16.03;;;4.30;99.90;;;;;;5017653;28;20651;-59
2024/01/29 02:37:30;;;;;;;16.93;15.53;;;4.30;99.90;;;;;;5014555;28;20313;-59
2024/01/29 02:39:56;;;;;;;17.90;16.40;;;4.30;99.90;;;;;;5014026;28;20903;-58
2024/01/29 02:42:21;;;;;;;17.20;15.90;;;4.30;99.90;;;;;;5010673;28;20866;-59
2024/01/29 02:44:47;;;;;;;17.70;16.23;;;4.30;99.90;;;;;;5005879;28;20194;-56
2024/01/29 02:47:15;;;;;;;17.30;15.80;;;4.30;99.90;;;;;;5007382;28;20187;-59
2024/01/29 02:49:43;;;;;;;17.42;15.93;;;4.30;99.90;;;;;;5016494;28;20182;-58
2024/01/29 02:52:09;;;;;;;16.75;15.35;;;4.30;99.90;;;;;;5010545;28;20206;-60
2024/01/29 02:54:34;;;;;;;17.52;15.98;;;4.20;99.90;;;;;;5013277;28;20194;-58
2024/01/29 02:57:00;;;;;;;17.80;16.20;;;4.30;99.90;;;;;;5009931;28;20875;-59
2024/01/29 02:59:26;;;;;;;17.40;16.07;;;4.20;99.90;;;;;;5016340;28;20187;-59
2024/01/29 03:01:51;;;;;;;18.20;16.50;;;4.20;99.90;;;;;;5007365;28;20188;-40
2024/01/29 03:04:17;;;;;;;16.77;15.47;;;4.20;99.90;;;;;;5016187;28;20304;-42
2024/01/29 03:06:42;;;;;;;16.40;14.97;;;4.30;99.90;;;;;;5009410;28;20277;-39
2024/01/29 03:09:08;;;;;;;16.73;15.33;;;4.20;99.90;;;;;;5010509;28;20224;-41
2024/01/29 03:11:33;;;;;;;17.77;16.00;;;4.20;99.90;;;;;;5012241;28;20269;-40
2024/01/29 03:14:00;;;;;;;18.23;16.73;;;4.20;99.90;;;;;;5011579;28;20190;-39
2024/01/29 03:16:26;;;;;;;17.35;15.85;;;4.20;99.90;;;;;;5010483;28;20206;-40
2024/01/29 03:18:52;;;;;;;16.17;14.87;;;4.20;99.90;;;;;;5006521;28;21012;-40
2024/01/29 03:21:17;;;;;;;17.13;15.60;;;4.20;99.90;;;;;;5016431;28;20180;-41
2024/01/29 03:23:43;;;;;;;17.50;15.90;;;4.30;99.90;;;;;;5005397;28;20255;-40
2024/01/29 03:26:08;;;;;;;17.37;15.97;;;4.30;99.90;;;;;;5012664;28;20210;-41
2024/01/29 03:28:34;;;;;;;16.60;14.90;;;4.30;99.90;;;;;;5015037;28;20190;-42
2024/01/29 03:31:00;;;;;;;17.77;15.90;;;4.40;99.90;;;;;;5014186;28;20543;-40
2024/01/29 03:33:25;;;;;;;15.67;14.43;;;4.30;99.90;;;;;;5009513;28;20195;-39
2024/01/29 03:35:51;;;;;;;16.90;15.60;;;4.30;99.90;;;;;;5015006;28;20863;-40
2024/01/29 03:38:17;;;;;;;18.03;16.13;;;4.30;97.70;;;;;;5014719;28;20829;-59
2024/01/29 03:40:42;;;;;;;16.73;15.23;;;4.30;84.60;;;;;;5014142;28;20210;-59
2024/01/29 03:43:08;;;;;;;16.30;15.03;;;4.20;81.60;;;;;;4993591;28;20273;-59
2024/01/29 03:45:34;;;;;;;18.03;16.53;;;4.30;65.30;;;;;;5010823;28;20265;-59
2024/01/29 03:48:00;;;;;;;17.08;15.52;;;4.30;59.00;;;;;;5002389;28;20183;-59
2024/01/29 03:50:26;;;;;;;17.60;16.13;;;4.30;47.30;;;;;;5020201;28;20687;-59
2024/01/29 03:52:51;;;;;;;16.80;15.30;;;4.40;30.40;;;;;;5007157;28;20266;-59
2024/01/29 03:55:17;;;;;;;17.83;16.13;;;4.40;18.90;;;;;;5006117;28;20178;-59
2024/01/29 03:57:43;;;;;;;17.80;16.20;;;4.40;1.00;;;;;;5016925;28;20872;-59
2024/01/29 04:00:09;;;;;;;16.77;15.10;;;4.40;1.00;;;;;;5006021;28;20552;-59
2024/01/29 04:02:34;;;;;;;16.05;14.85;;;4.40;1.00;;;;;;5006035;28;20250;-57
2024/01/29 04:05:00;;;;;;;17.13;14.60;;;4.40;1.00;;;;;;5003880;28;20235;-59
2024/01/29 04:07:27;;;;;;;15.57;14.30;;;4.40;1.00;;;;;;5019408;28;20209;-60
2024/01/29 04:09:53;;;;;;;17.42;15.93;;;4.40;1.00;;;;;;4988927;28;20430;-59
2024/01/29 04:12:18;;;;;;;17.10;15.63;;;4.40;1.00;;;;;;5011265;28;20192;-59
2024/01/29 04:14:44;;;;;;;17.20;15.77;;;4.40;1.00;;;;;;4997600;28;20175;-60
2024/01/29 04:17:12;;;;;;;16.60;15.40;;;4.40;1.00;;;;;;4999208;28;20329;-59
2024/01/29 04:19:38;;;;;;;16.17;14.68;;;4.40;1.00;;;;;;5008803;28;20410;-41
2024/01/29 04:22:04;;;;;;;18.48;16.67;;;4.40;1.00;;;;;;5016984;28;20190;-43
2024/01/29 04:24:30;;;;;;;15.88;14.57;;;4.30;1.00;;;;;;5009651;28;20179;-40
2024/01/29 04:26:56;;;;;;;15.77;14.40;;;4.40;1.00;;;;;;5016079;28;20255;-40
2024/01/29 04:29:22;;;;;;;16.53;15.33;;;4.30;1.00;;;;;;5014116;28;20779;-41
2024/01/29 04:31:47;;;;;;;16.73;15.33;;;4.30;1.00;;;;;;5006195;28;20183;-40
2024/01/29 04:34:13;;;;;;;15.70;14.10;;;4.30;1.00;;;;;;5011475;28;20269;-41
2024/01/29 04:36:39;;;;;;;16.17;14.90;;;4.30;1.00;;;;;;5017954;28;20202;-40
2024/01/29 04:39:04;;;;;;;17.00;15.60;;;4.30;1.00;;;;;;5015024;28;20178;-40
2024/01/29 04:41:30;;;;;;;16.20;14.73;;;4.30;1.00;;;;;;5005263;28;20543;-40
2024/01/29 04:43:56;;;;;;;15.68;14.27;;;4.30;1.00;;;;;;5014254;28;20418;-40
2024/01/29 04:46:23;;;;;;;15.73;14.53;;;4.30;1.00;;;;;;5005721;28;20529;-41
2024/01/29 04:48:49;;;;;;;16.73;15.27;;;4.30;1.00;;;;;;5012898;28;20180;-40
2024/01/29 04:51:15;;;;;;;16.60;15.00;;;4.30;1.00;;;;;;5017792;28;21330;-41
2024/01/29 04:53:40;;;;;;;16.73;15.30;;;4.30;1.00;;;;;;5007990;28;20301;-41
2024/01/29 04:56:06;;;;;;;16.33;14.83;;;4.30;1.00;;;;;;5003525;28;20531;-41
2024/01/29 04:58:33;;;;;;;16.65;15.10;;;4.30;1.00;;;;;;5012225;28;20187;-40
2024/01/29 05:00:59;;;;;;;17.83;16.25;;;4.20;1.00;;;;;;5002164;28;20179;-40
2024/01/29 05:03:26;;;;;;;16.10;14.70;;;4.20;1.00;;;;;;5007630;28;20663;-40
2024/01/29 05:05:51;;;;;;;15.93;14.55;;;4.20;1.00;;;;;;5010987;28;20284;-40
2024/01/29 05:08:18;;;;;;;15.27;13.97;;;4.20;1.00;;;;;;5016861;28;20178;-40
2024/01/29 05:10:45;;;;;;;16.92;15.38;;;4.20;1.00;;;;;;5018673;28;20413;-39
2024/01/29 05:13:11;;;;;;;16.17;14.75;;;4.10;1.00;;;;;;5016043;28;20264;-40
2024/01/29 05:15:36;;;;;;;16.00;14.80;;;4.10;1.00;;;;;;5010226;28;20258;-40
2024/01/29 05:18:02;;;;;;;15.90;14.60;;;4.10;1.00;;;;;;5013417;28;20835;-39
2024/01/29 05:20:29;;;;;;;16.57;15.30;;;4.00;1.00;;;;;;5011866;28;20252;-40
2024/01/29 05:22:55;;;;;;;16.13;14.80;;;4.00;1.00;;;;;;5008615;28;20452;-41
2024/01/29 05:25:21;;;;;;;16.80;15.50;;;4.00;1.00;;;;;;5007076;28;20183;-40
2024/01/29 05:27:47;;;;;;;17.40;15.80;;;4.00;1.00;;;;;;5001035;28;20465;-41
2024/01/29 05:30:13;;;;;;;17.43;15.33;;;3.90;1.00;;;;;;5015959;28;20460;-40
2024/01/29 05:32:38;;;;;;;18.17;16.37;;;3.90;1.00;;;;;;5018315;28;20185;-40
2024/01/29 05:35:05;;;;;;;16.53;15.33;;;3.80;1.00;;;;;;4993336;28;20462;-40
2024/01/29 05:37:32;;;;;;;18.20;16.38;;;3.80;1.00;;;;;;5009619;28;20322;-57
2024/01/29 05:39:57;;;;;;;18.08;16.55;;;3.80;1.00;;;;;;5014991;28;20183;-58
2024/01/29 05:42:23;;;;;;;17.90;16.10;;;3.70;1.00;;;;;;5017799;28;20212;-57
2024/01/29 05:44:49;;;;;;;17.97;16.37;;;3.70;1.00;;;;;;5019168;28;20803;-57
2024/01/29 05:47:15;;;;;;;17.43;15.93;;;3.70;1.00;;;;;;5022427;28;20192;-55
2024/01/29 05:49:41;;;;;;;17.40;15.80;;;3.70;1.00;;;;;;5020053;28;20196;-57
2024/01/29 05:52:07;;;;;;;17.97;16.20;;;3.60;1.00;;;;;;5014072;28;20635;-54
2024/01/29 05:54:32;;;;;;;16.70;15.07;;;3.70;1.00;;;;;;5012566;28;20264;-59
2024/01/29 05:56:59;;;;;;;16.77;15.27;;;3.60;1.00;;;;;;5019377;28;20225;-59
2024/01/29 05:59:24;;;;;;;16.73;15.32;;;3.70;1.00;;;;;;5015366;28;20376;-57
2024/01/29 06:01:50;;;;;;;16.57;15.20;;;3.60;1.00;;;;;;5014240;28;20175;-59
2024/01/29 06:04:16;;;;;;;17.10;15.50;;;3.70;1.00;;;;;;5015502;28;20923;-46
2024/01/29 06:06:43;;;;;;;17.53;16.13;;;3.70;1.00;;;;;;4991905;28;20195;-58
2024/01/29 06:09:12;;;;;;;17.17;15.75;;;3.70;1.00;;;;;;5004877;28;20225;-54
2024/01/29 06:11:37;;;;;;;17.60;16.08;;;3.70;1.00;;;;;;5008763;28;20230;-54
2024/01/29 06:14:03;;;;;;;16.90;15.33;;;3.70;1.00;;;;;;5020861;28;20771;-58
2024/01/29 06:16:29;;;;;;;16.27;14.80;;;3.70;1.00;;;;;;5016855;28;20229;-55
2024/01/29 06:18:55;;;;;;;17.93;16.20;;;3.70;1.00;;;;;;4999816;28;20265;-59
2024/01/29 06:21:24;;;;;;;16.58;15.05;;;3.60;1.00;;;;;;5008740;28;20209;-56
2024/01/29 06:23:49;;;;;;;18.15;16.38;;;3.70;1.00;;;;;;5004543;28;20197;-57
2024/01/29 06:26:15;;;;;;;16.60;15.30;;;3.60;1.00;;;;;;5006490;28;20233;-56
2024/01/29 06:28:44;;;;;;;17.00;15.60;;;3.70;1.00;;;;;;4999530;28;20187;-56
2024/01/29 06:31:10;;;;;;;16.90;15.50;;;3.60;1.00;;;;;;5008326;28;20481;-57
2024/01/29 06:33:36;;;;;;;17.17;15.50;;;3.70;1.00;;;;;;5009675;28;20567;-59
2024/01/29 06:36:08;;;;;;;16.77;15.40;;;3.70;1.00;;;;;;5013651;28;20457;-58
2024/01/29 06:38:34;;;;;;;16.02;14.63;;;3.70;1.00;;;;;;5016876;28;20424;-55
2024/01/29 06:40:59;;;;;;;17.00;15.43;;;3.70;1.00;;;;;;4989238;28;20189;-59
2024/01/29 06:43:26;;;;;;;16.17;14.87;;;3.70;1.00;;;;;;5013857;28;20241;-57
2024/01/29 06:45:52;;;;;;;17.30;15.60;;;3.60;1.00;;;;;;5010032;28;20167;-55
2024/01/29 06:48:17;;;;;;;17.83;15.97;;;3.70;1.00;;;;;;5021058;28;20992;-56
2024/01/29 06:50:44;;;;;;;17.10;15.50;;;3.60;1.00;;;;;;5020086;28;20271;-57
2024/01/29 06:53:10;;;;;;;17.05;15.45;;;3.60;1.00;;;;;;5007642;28;20179;-54
2024/01/29 06:55:35;;;;;;;16.83;15.23;;;3.60;1.00;;;;;;5015756;28;20190;-39
2024/01/29 06:58:01;;;;;;;18.53;16.83;;;3.60;1.00;;;;;;5020383;28;20209;-39
2024/01/29 07:00:27;;;;;;;19.00;17.30;;;3.60;1.00;;;;;;5009174;28;20190;-55
2024/01/29 07:02:52;;;;;;;18.30;16.70;;;3.60;1.00;;;;;;5010043;28;20194;-58
2024/01/29 07:05:18;;;;;;;18.13;16.33;;;3.60;1.00;;;;;;5019893;28;20765;-55
2024/01/29 07:07:44;;;;;;;17.80;16.20;;;3.50;1.00;;;;;;5012215;28;20221;-52
2024/01/29 07:10:09;;;;;;;18.97;16.10;;;3.50;1.00;;;;;;5007941;28;20376;-55
2024/01/29 07:12:35;;;;;;;17.97;16.37;;;3.50;1.00;;;;;;5009516;28;20224;-57
2024/01/29 07:15:01;;;;;;;17.73;16.33;;;3.50;1.00;;;;;;5019528;28;20217;-57
2024/01/29 07:17:27;;;;;;;17.33;15.63;;;3.50;1.00;;;;;;5015107;28;20206;-39
2024/01/29 07:19:53;;;;;;;19.50;15.17;;;3.50;1.00;;;;;;5017968;28;20221;-39
2024/01/29 07:22:19;;;;;;;18.87;17.10;;;3.50;1.00;;;;;;5009773;28;20530;-39
2024/01/29 07:24:46;;;;;;;18.77;16.98;;;3.50;1.00;;;;;;5018098;28;20213;-41
2024/01/29 07:27:11;;;;;;;18.48;16.63;;;3.50;6.00;;;;;;5012073;28;20658;-39
2024/01/29 07:29:37;;;;;;;17.47;15.97;;;3.50;1.00;;;;;;5017252;28;20185;-39
2024/01/29 07:32:03;;;;;;;17.60;16.20;;;3.50;1.00;;;;;;5007008;28;20191;-40
2024/01/29 07:34:29;;;;;;;17.60;15.93;;;3.50;1.00;;;;;;5019147;28;20452;-42
2024/01/29 07:36:54;;;;;;;16.87;15.37;;;3.60;1.00;;;;;;4992068;28;20820;-39
2024/01/29 07:39:20;;;;;;;18.37;16.23;;;3.60;1.00;;;;;;5016046;28;20214;-39
2024/01/29 07:41:46;;;;;;;17.00;15.33;;;3.60;1.00;;;;;;5007221;28;20442;-40
2024/01/29 07:44:12;;;;;;;17.17;15.57;;;3.70;1.00;;;;;;5013276;28;20257;-40
2024/01/29 07:46:38;;;;;;;17.93;16.37;;;3.70;1.00;;;;;;5008193;28;20548;-42
2024/01/29 07:49:03;;;;;;;16.17;14.77;;;3.70;1.00;;;;;;5014849;28;20290;-41
2024/01/29 07:51:30;;;;;;;16.57;15.10;;;3.70;1.00;;;;;;5015775;28;20209;-40
2024/01/29 07:53:55;;;;;;;16.70;15.10;;;3.80;1.00;;;;;;5010820;28;20338;-46
2024/01/29 07:56:21;;;;;;;17.70;16.00;;;3.80;1.00;;;;;;5017690;28;20742;-40
2024/01/29 07:58:47;;;;;;;15.60;14.30;;;3.80;1.00;;;;;;5010158;28;20929;-40
2024/01/29 08:01:12;;;;;;;17.20;15.60;;;3.90;1.00;;;;;;5016703;28;20207;-40
2024/01/29 08:03:38;;;;;;;17.93;16.30;;;4.00;1.00;;;;;;5012613;28;20183;-42
2024/01/29 08:06:04;;;;;;;17.30;15.67;;;4.00;1.00;;;;;;5018817;28;20238;-39
2024/01/29 08:08:30;;;;;;;16.83;15.10;;;4.10;1.00;;;;;;5013415;28;20778;-39
2024/01/29 08:11:00;;;;;;;16.85;15.32;;;4.20;1.00;;;;;;5012336;28;20186;-47
2024/01/29 08:13:27;;;;;;;16.33;14.55;;;4.20;1.00;;;;;;5007511;28;20176;-57
2024/01/29 08:15:53;;;;;;;17.40;15.60;;;4.40;1.00;;;;;;5011191;28;20199;-56
2024/01/29 08:18:18;;;;;;;18.03;16.37;;;4.60;1.00;;;;;;4998459;28;20732;-51
2024/01/29 08:20:44;;;;;;;15.47;14.07;;;4.80;1.00;;;;;;5018786;28;20182;-42
2024/01/29 08:23:10;;;;;;;17.30;15.80;;;5.10;1.00;;;;;;5016485;28;20217;-57
2024/01/29 08:25:36;;;;;;;16.55;14.93;;;5.30;1.00;;;;;;4998379;28;20422;-56
2024/01/29 08:28:02;;;;;;;16.73;15.33;;;5.50;1.00;;;;;;5008525;28;20201;-51
2024/01/29 08:30:28;;;;;;;16.87;15.40;;;5.70;1.00;;;;;;5010713;28;20543;-57
2024/01/29 08:32:53;;;;;;;17.23;15.73;;;6.00;1.00;;;;;;5005538;28;20440;-58
2024/01/29 08:35:19;;;;;;;16.43;15.03;;;6.10;1.00;;;;;;5002183;28;20290;-54
2024/01/29 08:37:45;;;;;;;16.90;15.23;;;6.40;1.00;;;;;;5015597;28;20222;-58
2024/01/29 08:40:11;;;;;;;16.63;15.33;;;6.60;1.00;;;;;;5022687;28;20190;-49
2024/01/29 08:42:36;;;;;;;17.27;15.47;;;6.80;1.00;;;;;;5020257;28;20410;-56
2024/01/29 08:45:03;;;;;;;16.93;15.60;;;6.90;1.00;;;;;;5015433;28;20440;-57
2024/01/29 08:47:29;;;;;;;16.20;14.70;;;7.00;1.00;;;;;;4988605;28;20198;-54
2024/01/29 08:49:54;;;;;;;16.40;15.00;;;7.40;1.00;;;;;;5012201;28;20826;-58
2024/01/29 08:52:20;;;;;;;16.90;15.30;;;7.50;1.00;;;;;;5006674;28;20245;-58
2024/01/29 08:54:46;;;;;;;17.20;15.73;;;7.70;1.00;;;;;;5022351;28;20217;-50
2024/01/29 08:57:11;;;;;;;17.50;16.00;;;7.90;1.00;;;;;;5020685;28;20232;-58
2024/01/29 08:59:41;;;;;;;17.70;16.20;;;8.10;1.00;;;;;;5011381;28;20190;-53
2024/01/29 09:02:07;;;;;;;18.03;16.60;;;8.40;1.00;;;;;;5022276;28;20182;-56
2024/01/29 09:04:32;;;;;;;16.33;15.03;;;8.80;99.90;;;;;;5014334;28;20519;-56
2024/01/29 09:06:58;;;;;;;16.30;15.10;;;8.90;99.90;;;;;;5022508;28;20281;-55
2024/01/29 09:09:24;;;;;;;16.63;15.10;;;9.10;99.90;;;;;;5004644;28;20206;-56
2024/01/29 09:11:51;;;;;;;16.70;15.30;;;9.10;99.90;;;;;;5018023;28;20425;-54
2024/01/29 09:14:17;;;;;;;16.70;15.00;;;9.40;99.90;;;;;;5015693;28;20632;-56
2024/01/29 09:16:43;;;;;;;16.10;14.70;;;9.60;99.90;;;;;;5019974;28;20467;-57
2024/01/29 09:19:09;;;;;;;16.83;15.13;;;9.40;99.90;;;;;;5012490;28;20417;-55
2024/01/29 09:21:36;;;;;;;15.30;14.00;;;9.50;99.90;;;;;;5021980;28;20189;-57
2024/01/29 09:24:02;;;;;;;17.53;16.07;;;9.90;99.90;;;;;;5021905;28;20190;-48
2024/01/29 09:26:28;;;;;;;17.07;15.60;;;9.60;99.90;;;;;;5021872;28;20956;-54
2024/01/29 09:28:54;;;;;;;17.37;15.70;;;9.70;99.90;;;;;;5010985;28;20442;-57
2024/01/29 09:31:19;;;;;;;16.00;14.80;;;9.80;99.90;;;;;;4986798;28;20286;-57
2024/01/29 09:33:45;;;;;;;17.97;16.37;;;9.80;99.90;;;;;;5007214;28;20549;-54
2024/01/29 09:36:10;;;;;;;17.63;16.30;;;10.00;99.90;;;;;;5018238;28;20214;-55
2024/01/29 09:38:36;;;;;;;16.90;15.60;;;10.10;99.90;;;;;;5016691;28;20191;-52
2024/01/29 09:41:03;;;;;;;17.13;15.53;;;10.40;99.90;;;;;;5018441;28;20189;-57
2024/01/29 09:43:32;;;;;;;16.90;15.60;;;10.40;99.90;;;;;;5019129;28;20203;-55
2024/01/29 09:46:02;;;;;;;16.60;15.10;;;10.50;99.90;;;;;;5017944;28;20787;-56
2024/01/29 09:48:28;;;;;;;16.87;15.37;;;10.50;99.90;;;;;;5011322;28;20610;-55
2024/01/29 09:50:55;;;;;;;16.73;15.23;;;10.60;99.90;;;;;;5019605;28;20425;-56
2024/01/29 09:53:22;;;;;;;16.83;15.33;;;10.90;99.90;;;;;;5021673;28;20459;-54
2024/01/29 09:55:48;;;;;;;16.90;15.20;;;10.60;99.90;;;;;;5019478;28;20421;-59
2024/01/29 09:58:14;;;;;;;17.53;16.07;;;10.90;99.90;;;;;;5011621;28;20482;-54
2024/01/29 10:00:40;;;;;;;16.77;15.30;;;11.00;99.90;;;;;;5019664;28;20421;-57
2024/01/29 10:03:07;;;;;;;17.90;16.40;;;11.20;99.90;;;;;;5021368;28;20512;-56
2024/01/29 10:05:33;;;;;;;16.80;15.40;;;11.60;99.90;;;;;;5009966;28;20238;-50
2024/01/29 10:08:00;;;;;;;17.03;15.63;;;12.10;99.90;;;;;;5000790;28;20507;-52
2024/01/29 10:10:26;;;;;;;16.70;15.20;;;12.10;99.90;;;;;;5008937;28;20425;-56
2024/01/29 10:13:06;;;;;;;17.50;16.10;;;12.20;99.90;;;;;;5021587;28;20425;-57
2024/01/29 10:15:32;;;;;;;16.57;15.10;;;12.30;99.90;;;;;;4996598;28;20430;-57
2024/01/29 10:17:57;;;;;;;17.33;16.03;;;12.40;99.90;;;;;;5015342;28;20474;-51
2024/01/29 10:20:23;;;;;;;17.20;15.80;;;12.70;99.90;;;;;;5013807;28;20670;-57
2024/01/29 10:23:00;;;;;;;17.93;16.50;;;12.70;99.90;;;;;;5021214;28;20191;-57
2024/01/29 10:25:31;;;;;;;17.47;16.00;;;12.80;99.90;;;;;;5012772;28;20918;-52
2024/01/29 10:28:12;;;;;;;16.07;14.77;;;12.80;99.90;;;;;;5008732;28;20442;-55
2024/01/29 10:30:39;;;;;;;17.83;16.47;;;12.70;99.90;;;;;;5017137;28;20470;-58
2024/01/29 10:33:05;;;;;;;17.30;15.90;;;12.20;99.90;;;;;;5011599;28;20443;-57
2024/01/29 10:35:31;;;;;;;17.50;16.10;;;12.30;99.90;;;;;;5018522;28;20449;-56
2024/01/29 10:38:04;;;;;;;16.50;15.23;;;12.30;99.90;;;;;;5019828;28;21097;-57
2024/01/29 10:40:31;;;;;;;17.33;15.93;;;12.40;99.90;;;;;;5019498;28;20179;-58
2024/01/29 10:42:59;;;;;;;16.20;15.10;;;12.50;99.90;;;;;;5014628;28;20442;-57
2024/01/29 10:45:25;;;;;;;16.90;15.50;;;12.70;99.90;;;;;;5010957;28;20895;-51
2024/01/29 10:47:57;;;;;;;16.70;15.40;;;12.70;99.90;;;;;;5015410;28;20453;-58
2024/01/29 10:50:23;;;;;;;17.13;15.73;;;12.50;99.90;;;;;;5011973;28;20465;-51
2024/01/29 10:52:50;;;;;;;16.80;15.30;;;12.60;99.90;;;;;;5018830;28;20441;-50
2024/01/29 10:55:16;;;;;;;16.93;15.53;;;12.60;99.90;;;;;;5013684;28;20198;-51
2024/01/29 10:57:47;;;;;;;16.07;14.67;;;12.80;99.90;;;;;;5018130;28;20472;-55
2024/01/29 11:00:18;;;;;;;16.63;15.10;;;13.10;99.90;;;;;;5006757;28;20785;-56
2024/01/29 11:02:44;;;;;;;17.10;15.80;;;12.90;99.90;;;;;;5020035;28;20429;-53
2024/01/29 11:05:12;;;;;;;17.37;15.97;;;13.10;99.90;;;;;;5011727;28;20476;-56
2024/01/29 11:07:41;;;;;;;16.70;15.30;;;13.20;99.90;;;;;;5018927;28;20835;-51
2024/01/29 11:10:18;;;;;;;17.30;15.90;;;13.00;99.90;;;;;;5003514;28;20426;-54
2024/01/29 11:12:45;;;;;;;17.00;15.70;;;13.10;99.90;;;;;;5020142;28;20425;-55
2024/01/29 11:15:11;;;;;;;16.27;15.10;;;13.00;99.90;;;;;;5019114;28;20772;-57
2024/01/29 11:17:38;;;;;;;17.07;15.77;;;13.20;99.90;;;;;;5019626;28;20511;-55
2024/01/29 11:20:15;;;;;;;17.57;16.07;;;13.30;99.90;;;;;;5037334;28;20579;-46
2024/01/29 11:22:52;;;;;;;17.10;15.70;;;13.60;99.90;;;;;;5037341;28;20471;-49
2024/01/29 11:25:19;;;;;;;16.43;15.23;;;13.40;99.90;;;;;;5037182;28;20412;-55
2024/01/29 11:27:46;;;;;;;16.03;14.93;;;13.80;99.90;;;;;;5036384;28;20427;-57
2024/01/29 11:30:23;;;;;;;16.40;15.10;;;14.10;99.90;;;;;;5036815;28;20923;-50
2024/01/29 11:32:50;;;;;;;16.60;15.40;;;14.10;99.90;;;;;;5036370;28;20474;-53
2024/01/29 11:35:20;;;;;;;17.50;15.70;;;14.60;99.90;;;;;;5036429;28;20412;-57
2024/01/29 11:37:49;;;;;;;15.37;14.30;;;14.90;99.90;;;;;;5035254;28;20423;-53
2024/01/29 11:40:41;;;;;;;16.23;15.13;;;14.90;99.90;;;;;;5036333;28;20914;-54
2024/01/29 11:43:15;;;;;;;17.23;16.00;;;15.10;99.90;;;;;;5035708;28;20438;-54
2024/01/29 11:45:43;;;;;;;19.20;17.50;;;15.20;99.90;;;;;;5035999;28;20549;-57
2024/01/29 11:48:13;;;;;;;16.63;15.40;;;15.20;99.90;;;;;;5035737;28;20808;-49
2024/01/29 11:50:44;;;;;;;16.93;15.80;;;15.20;99.90;;;;;;5036384;28;20474;-51
2024/01/29 11:53:15;;;;;;;16.60;15.40;;;14.90;99.90;;;;;;5034734;28;20428;-41
2024/01/29 11:55:41;;;;;;;16.23;15.10;;;15.30;99.90;;;;;;5034758;28;20451;-40
2024/01/29 11:58:13;;;;;;;16.70;15.60;;;15.30;99.90;;;;;;5034573;28;20458;-41
2024/01/29 12:00:39;;;;;;;16.77;15.47;;;15.50;99.90;;;;;;5036346;28;20542;-47
2024/01/29 12:03:08;;;;;;;16.13;14.97;;;15.90;99.90;;;;;;5035964;28;20450;-52
2024/01/29 12:05:34;;;;;;;15.43;14.33;;;16.10;99.90;;;;;;5051675;28;20456;-56
2024/01/29 12:08:00;;;;;;;16.87;15.67;;;16.10;99.90;;;;;;5034941;28;20490;-54
2024/01/29 12:10:25;;;;;;;16.47;15.27;;;16.00;99.90;;;;;;5035962;28;20565;-49
2024/01/29 12:12:51;;;;;;;15.70;14.50;;;15.70;99.90;;;;;;5036067;28;20653;-57
2024/01/29 12:15:16;;;;;;;16.97;15.67;;;15.60;99.90;;;;;;5035663;28;20356;-55
2024/01/29 12:17:45;;;;;;;15.90;14.70;;;15.60;99.90;;;;;;5035674;28;20701;-53
2024/01/29 12:20:11;;;;;;;16.50;15.30;;;15.80;99.90;;;;;;5035412;28;20708;-53
2024/01/29 12:22:38;;;;;;;16.73;15.53;;;16.00;99.90;;;;;;5035566;28;20423;-55
2024/01/29 12:25:11;;;;;;;16.70;15.60;;;16.00;99.90;;;;;;5035667;28;21263;-56
2024/01/29 12:27:41;;;;;;;16.53;15.43;;;16.00;99.90;;;;;;5035555;28;20412;-56
2024/01/29 12:30:14;;;;;;;16.17;14.87;;;16.00;99.90;;;;;;5029355;28;20795;-54
2024/01/29 12:32:43;;;;;;;15.53;14.40;;;15.10;99.90;;;;;;5022071;28;20409;-56
2024/01/29 12:35:24;;;;;;;17.10;15.80;;;15.10;99.90;;;;;;5022525;28;20417;-47